Time;durP1;ratioP1;P1;durP2;ratioP2;P2;SDS_P1;SDS_P2;PMS_P1;PMS_P2;Temp;Humidity;BMP_temperature;BMP_pressure;BME280_temperature;BME280_humidity;BME280_pressure;Samples;Min_cycle;Max_cycle;Signal;HPM_P1;HPM_P2
2022/06/11 00:01:42;;;;;;;;;11.00;7.25;;;;;21.17;52.26;101576.59;5110849;27;45314;-65
2022/06/11 00:04:11;;;;;;;;;9.75;6.75;;;;;21.15;52.05;101584.66;5111256;27;45245;-65
2022/06/11 00:06:41;;;;;;;;;7.25;6.75;;;;;21.12;52.29;101573.34;5101935;27;45457;-65
2022/06/11 00:09:07;;;;;;;;;6.25;6.25;;;;;21.12;52.01;101576.00;5086845;27;45699;-64
2022/06/11 00:11:33;;;;;;;;;8.25;7.50;;;;;21.11;52.14;101572.50;5100476;27;45372;-65
2022/06/11 00:13:59;;;;;;;;;7.00;6.75;;;;;21.12;52.07;101576.00;5106525;27;67656;-64
2022/06/11 00:16:25;;;;;;;;;8.00;8.00;;;;;21.13;51.90;101580.41;5116011;27;75727;-64
2022/06/11 00:18:54;;;;;;;;;9.00;7.75;;;;;21.11;51.96;101575.16;5104913;27;45946;-64
2022/06/11 00:21:19;;;;;;;;;7.00;6.00;;;;;21.08;52.33;101571.81;5108502;27;45651;-63
2022/06/11 00:23:46;;;;;;;;;6.00;3.00;;;;;21.05;52.23;101568.38;5106284;27;46039;-63
2022/06/11 00:26:13;;;;;;;;;4.75;4.75;;;;;21.02;52.56;101573.88;5102241;27;46312;-63
2022/06/11 00:28:39;;;;;;;;;4.50;4.50;;;;;21.01;52.55;101571.31;5104205;27;45970;-63
2022/06/11 00:31:05;;;;;;;;;8.25;6.50;;;;;20.97;52.93;101570.63;5106344;27;45670;-63
2022/06/11 00:33:31;;;;;;;;;7.75;6.00;;;;;20.93;52.57;101571.75;5118363;27;45288;-64
2022/06/11 00:35:57;;;;;;;;;7.00;7.00;;;;;20.90;52.82;101574.59;5104712;27;46059;-65
2022/06/11 00:38:23;;;;;;;;;6.00;6.00;;;;;20.90;53.06;101574.59;5106810;27;45338;-65
2022/06/11 00:40:50;;;;;;;;;9.25;7.25;;;;;20.89;52.84;101577.31;5106412;27;45379;-65
2022/06/11 00:43:18;;;;;;;;;6.00;6.00;;;;;20.85;52.78;101569.50;5113272;27;45498;-65
2022/06/11 00:45:54;;;;;;;;;6.25;6.25;;;;;20.83;53.45;101574.06;5106988;27;46419;-65
2022/06/11 00:48:30;;;;;;;;;5.50;5.00;;;;;20.79;53.00;101572.53;5088253;27;45814;-65
2022/06/11 00:51:00;;;;;;;;;6.75;6.25;;;;;20.78;53.48;101562.81;5093834;27;45419;-63
2022/06/11 00:53:55;;;;;;;;;7.75;5.75;;;;;20.78;53.34;101578.78;5108421;27;45439;-64
2022/06/11 00:56:25;;;;;;;;;7.50;6.25;;;;;20.77;53.44;101579.75;5108647;27;46126;-64
2022/06/11 00:58:51;;;;;;;;;7.75;5.25;;;;;20.73;53.61;101572.00;5094353;27;45779;-64
2022/06/11 01:01:20;;;;;;;;;4.25;4.25;;;;;20.70;53.95;101572.19;5087139;27;45470;-64
2022/06/11 01:03:47;;;;;;;;;9.00;5.00;;;;;20.65;53.68;101570.66;5092522;27;45470;-64
2022/06/11 01:06:53;;;;;;;;;7.75;5.25;;;;;20.64;53.84;101573.38;5104749;27;46326;-64
2022/06/11 01:09:26;;;;;;;;;6.50;5.25;;;;;20.62;53.92;101573.47;5096889;27;45556;-64
2022/06/11 01:12:29;;;;;;;;;6.00;6.00;;;;;20.58;53.90;101576.38;5088217;27;46325;-63
2022/06/11 01:15:00;;;;;;;;;5.00;5.00;;;;;20.54;54.12;101572.16;5110993;27;45607;-63
2022/06/11 01:17:30;;;;;;;;;9.75;5.75;;;;;20.52;53.72;101572.22;5115250;27;46434;-64
2022/06/11 01:20:05;;;;;;;;;8.25;5.50;;;;;20.49;54.17;101573.28;5103388;27;45345;-64
2022/06/11 01:22:58;;;;;;;;;6.00;6.00;;;;;20.48;54.02;101568.03;5106816;27;45733;-64
2022/06/11 01:25:54;;;;;;;;;6.00;4.25;;;;;20.46;54.16;101570.78;5086261;27;45857;-63
2022/06/11 01:28:31;;;;;;;;;7.25;6.25;;;;;20.46;53.86;101569.94;5096405;27;45565;-64
2022/06/11 01:31:25;;;;;;;;;7.25;5.25;;;;;20.44;54.49;101566.50;5081083;27;45600;-64
2022/06/11 01:33:53;;;;;;;;;9.00;4.00;;;;;20.42;54.44;101571.06;5092420;27;45583;-63
2022/06/11 01:36:23;;;;;;;;;6.00;5.00;;;;;20.38;54.37;101565.03;5101351;27;45746;-63
2022/06/11 01:39:03;;;;;;;;;6.25;5.00;;;;;20.38;54.29;101565.03;5095321;27;46226;-63
2022/06/11 01:41:38;;;;;;;;;5.00;5.00;;;;;20.38;54.55;101567.69;5093996;27;45505;-63
2022/06/11 01:44:08;;;;;;;;;6.75;6.00;;;;;20.37;54.33;101563.31;5112872;27;45604;-63
2022/06/11 01:46:37;;;;;;;;;5.50;5.00;;;;;20.35;54.23;101564.34;5110566;27;45462;-63
2022/06/11 01:49:20;;;;;;;;;4.00;4.00;;;;;20.32;54.63;101573.34;5105699;27;45595;-63
2022/06/11 01:52:04;;;;;;;;;6.00;4.75;;;;;20.30;54.80;101564.59;5119394;27;45831;-64
2022/06/11 01:54:36;;;;;;;;;6.00;4.00;;;;;20.28;54.59;101570.00;5091906;27;46693;-63
2022/06/11 01:57:18;;;;;;;;;5.50;4.00;;;;;20.26;54.93;101573.69;5101018;27;47678;-64
2022/06/11 02:00:15;;;;;;;;;5.25;3.75;;;;;20.23;54.91;101569.38;5095971;27;46142;-64
2022/06/11 02:02:41;;;;;;;;;5.75;5.00;;;;;20.24;55.06;101572.91;5081209;27;45499;-63
2022/06/11 02:05:25;;;;;;;;;6.25;4.25;;;;;20.23;54.85;101581.81;5113615;27;45358;-63
2022/06/11 02:08:20;;;;;;;;;5.75;4.75;;;;;20.22;54.80;101580.09;5104513;27;45673;-63
2022/06/11 02:10:47;;;;;;;;;8.00;6.00;;;;;20.22;54.85;101586.28;5110310;27;45461;-64
2022/06/11 02:13:12;;;;;;;;;7.25;6.00;;;;;20.21;55.06;101581.91;5095891;27;45798;-64
2022/06/11 02:15:50;;;;;;;;;4.00;3.50;;;;;20.22;54.95;101588.06;5118976;27;45433;-64
2022/06/11 02:18:18;;;;;;;;;5.00;5.00;;;;;20.21;55.25;101586.38;5097750;27;45504;-64
2022/06/11 02:20:50;;;;;;;;;7.25;7.25;;;;;20.20;54.79;101587.28;5095736;27;45464;-63
2022/06/11 02:23:24;;;;;;;;;5.00;5.00;;;;;20.17;55.15;101585.69;5101903;27;45859;-63
2022/06/11 02:25:56;;;;;;;;;4.25;4.00;;;;;20.14;54.83;101577.00;5099460;27;45565;-64
2022/06/11 02:28:26;;;;;;;;;5.25;5.00;;;;;20.12;55.36;101585.06;5107435;27;45437;-64
2022/06/11 02:30:53;;;;;;;;;5.00;4.00;;;;;20.11;54.88;101588.66;5118211;27;46039;-64
2022/06/11 02:33:19;;;;;;;;;3.25;3.25;;;;;20.07;55.20;101581.78;5098317;27;45296;-64
2022/06/11 02:35:58;;;;;;;;;4.75;3.25;;;;;20.05;55.39;101575.69;5117158;27;45575;-65
2022/06/11 02:38:25;;;;;;;;;6.75;4.75;;;;;20.06;55.20;101588.03;5092119;27;45483;-65
2022/06/11 02:40:55;;;;;;;;;5.00;5.00;;;;;20.06;55.09;101588.03;5115650;27;47307;-65
2022/06/11 02:43:21;;;;;;;;;5.00;4.00;;;;;20.06;55.55;101580.94;5112162;27;45486;-65
2022/06/11 02:45:46;;;;;;;;;5.00;5.00;;;;;20.06;55.21;101588.91;5108473;27;45366;-65
2022/06/11 02:48:13;;;;;;;;;5.75;5.00;;;;;20.06;55.46;101591.56;5110132;27;72383;-65
2022/06/11 02:50:40;;;;;;;;;6.00;5.50;;;;;20.05;55.28;101592.50;5102861;27;45625;-64
2022/06/11 02:53:07;;;;;;;;;5.00;5.00;;;;;20.04;55.42;101595.22;5106916;27;45287;-64
2022/06/11 02:55:34;;;;;;;;;5.75;5.00;;;;;20.00;55.32;101599.00;5114955;27;45298;-64
2022/06/11 02:57:59;;;;;;;;;7.50;5.75;;;;;19.99;55.75;101597.25;5117529;27;45794;-63
2022/06/11 03:00:31;;;;;;;;;5.00;5.00;;;;;19.97;55.67;101593.84;5118825;27;45393;-63
2022/06/11 03:02:57;;;;;;;;;6.25;4.25;;;;;19.95;55.85;101595.72;5103627;27;45382;-64
2022/06/11 03:05:28;;;;;;;;;6.00;4.50;;;;;19.92;55.46;101600.25;5111572;27;45884;-64
2022/06/11 03:07:54;;;;;;;;;7.50;5.00;;;;;19.89;55.87;101594.25;5111912;27;45294;-64
2022/06/11 03:10:21;;;;;;;;;4.00;3.25;;;;;19.87;55.93;101593.47;5101725;27;45551;-63
2022/06/11 03:12:46;;;;;;;;;6.25;5.25;;;;;19.84;56.03;101606.91;5103854;27;45740;-64
2022/06/11 03:15:14;;;;;;;;;8.00;5.25;;;;;19.81;56.35;101599.94;5116009;27;45211;-64
2022/06/11 03:17:40;;;;;;;;;5.00;5.00;;;;;19.80;56.32;101605.38;5113629;27;45456;-64
2022/06/11 03:20:06;;;;;;;;;5.75;5.00;;;;;19.78;56.29;101607.22;5115619;27;46204;-64
2022/06/11 03:22:32;;;;;;;;;5.25;4.00;;;;;19.78;56.57;101604.56;5112372;27;45898;-64
2022/06/11 03:24:58;;;;;;;;;4.50;4.50;;;;;19.75;56.14;101608.25;5113648;27;45464;-64
2022/06/11 03:27:23;;;;;;;;;4.75;4.75;;;;;19.75;56.37;101602.94;5104326;27;70993;-65
2022/06/11 03:29:49;;;;;;;;;4.50;4.50;;;;;19.72;56.55;101606.59;5105357;27;46233;-64
2022/06/11 03:32:14;;;;;;;;;4.25;4.25;;;;;19.71;56.56;101599.53;5107973;27;65763;-64
2022/06/11 03:34:40;;;;;;;;;5.00;4.50;;;;;19.72;56.15;101613.69;5103115;27;45323;-65
2022/06/11 03:37:05;;;;;;;;;5.75;5.00;;;;;19.70;56.42;101608.44;5113905;27;45415;-65
2022/06/11 03:39:31;;;;;;;;;4.00;4.00;;;;;19.68;56.30;101612.97;5113369;27;45804;-66
2022/06/11 03:41:56;;;;;;;;;5.00;5.00;;;;;19.67;56.80;101607.75;5111880;27;45551;-66
2022/06/11 03:44:22;;;;;;;;;7.25;5.25;;;;;19.67;56.80;101627.22;5102752;27;45490;-66
2022/06/11 03:46:48;;;;;;;;;5.50;5.00;;;;;19.64;56.68;101619.38;5115526;27;45302;-67
2022/06/11 03:49:16;;;;;;;;;6.00;6.00;;;;;19.65;56.53;101631.72;5104928;27;45453;-66
2022/06/11 03:51:41;;;;;;;;;6.75;5.00;;;;;19.64;56.69;101634.47;5099720;27;46461;-67
2022/06/11 03:54:07;;;;;;;;;7.00;6.50;;;;;19.63;56.64;101640.72;5109405;27;45468;-66
2022/06/11 03:56:33;;;;;;;;;7.50;5.25;;;;;19.61;57.07;101643.44;5115267;27;45403;-67
2022/06/11 03:58:59;;;;;;;;;10.00;6.25;;;;;19.58;57.27;101646.25;5110590;27;45247;-66
2022/06/11 04:01:25;;;;;;;;;7.75;7.00;;;;;19.54;56.92;101648.19;5107738;27;45463;-66
2022/06/11 04:04:03;;;;;;;;;8.00;7.00;;;;;19.52;57.15;101651.88;5103841;27;45346;-66
2022/06/11 04:06:56;;;;;;;;;10.75;6.00;;;;;19.53;57.22;101653.59;5107322;27;45484;-66
2022/06/11 04:09:31;;;;;;;;;8.00;6.50;;;;;19.51;57.25;101658.09;5096583;27;47246;-66
2022/06/11 04:11:57;;;;;;;;;8.75;6.00;;;;;19.49;56.64;101667.94;5102712;27;45446;-66
2022/06/11 04:14:22;;;;;;;;;7.50;5.50;;;;;19.48;57.18;101664.44;5105229;27;45441;-66
2022/06/11 04:16:52;;;;;;;;;5.50;4.75;;;;;19.48;57.49;101669.75;5106892;27;65683;-64
2022/06/11 04:19:21;;;;;;;;;5.25;5.25;;;;;19.44;57.42;101670.84;5099116;27;46179;-64
2022/06/11 04:21:47;;;;;;;;;7.50;6.00;;;;;19.44;57.36;101676.16;5096250;27;45386;-64
2022/06/11 04:24:14;;;;;;;;;9.25;6.25;;;;;19.44;57.60;101675.28;5109797;27;45272;-64
2022/06/11 04:26:43;;;;;;;;;8.75;7.75;;;;;19.42;57.23;101671.84;5106363;27;45530;-64
2022/06/11 04:29:12;;;;;;;;;4.50;4.50;;;;;19.40;57.67;101679.03;5113595;27;45409;-65
2022/06/11 04:31:37;;;;;;;;;8.50;6.25;;;;;19.39;57.93;101675.53;5089958;27;45347;-64
2022/06/11 04:34:03;;;;;;;;;8.50;6.00;;;;;19.39;58.22;101682.59;5111544;27;45208;-63
2022/06/11 04:36:31;;;;;;;;;7.00;6.25;;;;;19.37;57.55;101690.66;5104529;27;73262;-65
2022/06/11 04:38:57;;;;;;;;;7.75;7.25;;;;;19.33;58.28;101684.63;5114633;27;45356;-64
2022/06/11 04:41:23;;;;;;;;;9.25;6.50;;;;;19.33;58.15;101692.56;5111168;27;72175;-64
2022/06/11 04:43:49;;;;;;;;;6.75;6.00;;;;;19.33;57.57;101689.91;5111459;27;45612;-64
2022/06/11 04:46:15;;;;;;;;;7.50;6.75;;;;;19.34;58.16;101702.28;5112275;27;45569;-67
2022/06/11 04:48:41;;;;;;;;;7.50;6.50;;;;;19.36;58.27;101691.59;5106304;27;46939;-64
2022/06/11 04:51:07;;;;;;;;;8.25;7.00;;;;;19.37;58.59;101697.75;5109504;27;59987;-66
2022/06/11 04:53:32;;;;;;;;;10.50;7.25;;;;;19.35;58.28;101693.38;5107397;27;45406;-65
2022/06/11 04:55:58;;;;;;;;;6.25;6.00;;;;;19.35;58.08;101693.38;5099115;27;73236;-63
2022/06/11 04:58:24;;;;;;;;;7.75;6.25;;;;;19.36;58.63;101699.56;5112362;27;72603;-63
2022/06/11 05:00:50;;;;;;;;;8.00;6.00;;;;;19.35;58.32;101700.47;5111787;27;45520;-64
2022/06/11 05:03:15;;;;;;;;;6.50;6.50;;;;;19.35;58.07;101700.47;5092794;27;45409;-62
2022/06/11 05:05:41;;;;;;;;;6.75;6.00;;;;;19.34;58.50;101699.63;5110454;27;62024;-62
2022/06/11 05:08:07;;;;;;;;;5.50;5.50;;;;;19.31;58.51;101697.09;5096010;27;46373;-65
2022/06/11 05:10:37;;;;;;;;;8.00;7.00;;;;;19.35;58.64;101703.13;5117828;27;45774;-64
2022/06/11 05:13:04;;;;;;;;;7.75;5.00;;;;;19.35;58.65;101704.00;5108192;27;45491;-65
2022/06/11 05:15:29;;;;;;;;;6.75;6.00;;;;;19.37;58.75;101703.94;5102072;27;45315;-64
2022/06/11 05:17:55;;;;;;;;;7.25;7.00;;;;;19.40;58.92;101701.09;5101340;27;45410;-67
2022/06/11 05:20:20;;;;;;;;;8.50;6.75;;;;;19.46;58.91;101705.25;5105071;27;45312;-66
2022/06/11 05:22:47;;;;;;;;;8.75;6.00;;;;;19.50;58.47;101702.38;5103138;27;45523;-66
2022/06/11 05:25:14;;;;;;;;;8.75;6.75;;;;;19.56;58.61;101703.03;5109640;27;45431;-66
2022/06/11 05:27:42;;;;;;;;;9.25;7.00;;;;;19.58;58.48;101703.81;5109579;27;46438;-66
2022/06/11 05:30:15;;;;;;;;;7.75;6.50;;;;;19.60;58.49;101704.59;5115920;27;45652;-66
2022/06/11 05:32:41;;;;;;;;;8.00;6.75;;;;;19.63;58.26;101697.31;5108220;27;45387;-66
2022/06/11 05:35:10;;;;;;;;;8.75;6.00;;;;;19.67;58.21;101698.91;5117465;27;45488;-64
2022/06/11 05:37:36;;;;;;;;;7.25;6.25;;;;;19.70;58.27;101689.91;5095474;27;46136;-64
2022/06/11 05:40:04;;;;;;;;;10.25;7.75;;;;;19.71;58.11;101689.00;5118791;27;71317;-65
2022/06/11 05:42:29;;;;;;;;;7.00;6.75;;;;;19.75;58.14;101703.84;5113189;27;45322;-65
2022/06/11 05:44:54;;;;;;;;;6.75;5.75;;;;;19.80;58.15;101688.56;5116433;27;73136;-65
2022/06/11 05:47:23;;;;;;;;;7.50;7.00;;;;;19.82;58.21;101691.13;5101060;27;46959;-65
2022/06/11 05:49:51;;;;;;;;;8.25;6.00;;;;;19.81;58.54;101698.22;5090657;27;45743;-65
2022/06/11 05:52:21;;;;;;;;;8.50;7.50;;;;;19.84;58.07;101700.72;5121190;27;45299;-65
2022/06/11 05:54:47;;;;;;;;;7.50;7.00;;;;;19.88;58.09;101707.63;5111262;27;45448;-67
2022/06/11 05:57:16;;;;;;;;;6.00;6.00;;;;;19.91;57.88;101701.28;5113249;27;46232;-67
2022/06/11 05:59:46;;;;;;;;;9.50;8.00;;;;;19.92;57.49;101700.38;5096593;27;45342;-66
2022/06/11 06:02:14;;;;;;;;;9.50;6.25;;;;;19.92;57.92;101703.03;5115544;27;45290;-66
2022/06/11 06:04:40;;;;;;;;;11.25;8.25;;;;;19.91;58.02;101706.59;5120695;27;45483;-65
2022/06/11 06:07:08;;;;;;;;;7.00;6.00;;;;;19.95;58.36;101707.31;5113143;27;46588;-65
2022/06/11 06:09:33;;;;;;;;;7.25;7.25;;;;;19.96;58.21;101714.34;5109940;27;45787;-67
2022/06/11 06:11:59;;;;;;;;;9.50;7.00;;;;;19.95;57.49;101712.63;5112520;27;45298;-65
2022/06/11 06:14:24;;;;;;;;;9.75;7.50;;;;;20.00;57.45;101713.25;5108151;27;45520;-66
2022/06/11 06:16:50;;;;;;;;;10.50;7.50;;;;;20.05;58.10;101712.06;5116664;27;45676;-66
2022/06/11 06:19:15;;;;;;;;;10.00;6.25;;;;;20.12;58.15;101717.94;5114847;27;45676;-66
2022/06/11 06:21:41;;;;;;;;;8.00;6.00;;;;;20.23;58.17;101706.75;5111746;27;68930;-66
2022/06/11 06:24:07;;;;;;;;;9.50;5.00;;;;;20.32;57.56;101703.59;5115226;27;45480;-66
2022/06/11 06:26:32;;;;;;;;;9.25;6.75;;;;;20.44;57.75;101710.06;5118651;27;46276;-66
2022/06/11 06:28:58;;;;;;;;;10.00;6.75;;;;;20.53;57.03;101714.06;5111511;27;58589;-67
2022/06/11 06:31:24;;;;;;;;;8.00;6.75;;;;;20.60;57.32;101718.94;5099568;27;45650;-67
2022/06/11 06:33:51;;;;;;;;;12.00;7.00;;;;;20.63;57.21;101713.50;5110610;27;45457;-67
2022/06/11 06:36:16;;;;;;;;;10.00;6.00;;;;;20.66;56.68;101717.78;5113386;27;46282;-65
2022/06/11 06:38:43;;;;;;;;;9.25;7.00;;;;;20.67;56.48;101716.84;5114975;27;69193;-66
2022/06/11 06:41:08;;;;;;;;;5.00;4.75;;;;;20.67;56.63;101712.38;5113983;27;45328;-66
2022/06/11 06:43:34;;;;;;;;;5.25;3.00;;;;;20.72;56.29;101711.31;5107767;27;45653;-66
2022/06/11 06:46:00;;;;;;;;;9.00;7.00;;;;;20.70;56.20;101716.69;5117754;27;45394;-65
2022/06/11 06:48:26;;;;;;;;;9.00;6.50;;;;;20.71;56.21;101723.72;5110141;27;45767;-66
2022/06/11 06:50:52;;;;;;;;;8.25;6.00;;;;;20.73;56.13;101713.00;5119101;27;45480;-64
2022/06/11 06:53:18;;;;;;;;;8.25;6.50;;;;;20.75;56.41;101719.97;5107535;27;45387;-64
2022/06/11 06:55:44;;;;;;;;;6.75;5.00;;;;;20.78;56.14;101725.09;5111032;27;75431;-66
2022/06/11 06:58:09;;;;;;;;;6.75;5.75;;;;;20.81;56.14;101726.75;5110699;27;45803;-66
2022/06/11 07:00:35;;;;;;;;;5.25;4.00;;;;;20.82;55.93;101718.69;5104099;27;68132;-65
2022/06/11 07:03:00;;;;;;;;;3.25;3.25;;;;;20.86;55.70;101722.06;5106040;27;73243;-65
2022/06/11 07:05:26;;;;;;;;;5.50;5.50;;;;;20.89;55.49;101721.84;5115991;27;70731;-65
2022/06/11 07:07:51;;;;;;;;;6.00;6.00;;;;;20.95;55.06;101728.66;5119560;27;45796;-66
2022/06/11 07:10:19;;;;;;;;;7.75;5.75;;;;;20.97;55.67;101726.78;5118352;27;46252;-66
2022/06/11 07:12:44;;;;;;;;;6.00;5.25;;;;;20.97;55.49;101726.78;5103537;27;45430;-65
2022/06/11 07:15:10;;;;;;;;;6.00;4.00;;;;;20.96;55.20;101725.06;5112274;27;63714;-66
2022/06/11 07:17:42;;;;;;;;;7.00;5.00;;;;;20.97;55.84;101727.63;5118103;27;50001;-66
2022/06/11 07:20:12;;;;;;;;;7.50;5.00;;;;;21.00;55.62;101723.94;5105717;27;45347;-66
2022/06/11 07:22:45;;;;;;;;;5.75;4.00;;;;;21.02;55.26;101727.38;5100539;27;45257;-65
2022/06/11 07:25:11;;;;;;;;;6.00;6.00;;;;;21.09;54.94;101733.19;5112198;27;45197;-65
2022/06/11 07:27:42;;;;;;;;;5.25;5.25;;;;;21.12;55.20;101733.91;5115977;27;45289;-64
2022/06/11 07:30:12;;;;;;;;;7.25;4.25;;;;;21.19;54.87;101729.09;5102561;27;45506;-66
2022/06/11 07:32:39;;;;;;;;;7.50;4.50;;;;;21.27;54.51;101724.22;5108083;27;45461;-65
2022/06/11 07:35:11;;;;;;;;;7.00;5.00;;;;;21.36;54.89;101730.81;5121678;27;52010;-65
2022/06/11 07:37:36;;;;;;;;;8.00;6.00;;;;;21.49;54.34;101741.66;5111441;27;45646;-65
2022/06/11 07:40:04;;;;;;;;;7.00;5.75;;;;;21.54;54.05;101736.94;5091388;27;45363;-65
2022/06/11 07:42:29;;;;;;;;;6.75;5.50;;;;;21.56;53.86;101735.03;5111009;27;45397;-65
2022/06/11 07:44:54;;;;;;;;;5.00;5.00;;;;;21.58;54.29;101738.47;5107739;27;67384;-66
2022/06/11 07:47:53;;;;;;;;;7.00;5.00;;;;;21.62;54.27;101737.34;5091277;27;71288;-65
2022/06/11 07:50:06;;;;;;;;;6.00;6.00;;;;;21.69;54.36;101733.41;5106841;27;45523;-65
2022/06/11 07:52:31;;;;;;;;;5.75;5.75;;;;;21.79;54.23;101731.03;5095522;27;45486;-65
2022/06/11 07:54:57;;;;;;;;;6.00;6.00;;;;;21.88;53.86;101725.16;5112038;27;74579;-65
2022/06/11 07:57:22;;;;;;;;;6.00;6.00;;;;;22.02;53.29;101732.34;5104807;27;63606;-65
2022/06/11 07:59:48;;;;;;;;;4.50;4.50;;;;;22.13;53.11;101734.38;5107419;27;68157;-65
2022/06/11 08:02:13;;;;;;;;;8.25;5.75;;;;;22.19;53.00;101734.88;5113085;27;45394;-66
2022/06/11 08:04:38;;;;;;;;;10.25;4.25;;;;;22.23;52.62;101740.88;5109587;27;74486;-66
2022/06/11 08:07:04;;;;;;;;;6.75;5.25;;;;;22.23;52.31;101732.03;5119081;27;45255;-66
2022/06/11 08:09:29;;;;;;;;;5.75;4.00;;;;;22.17;52.26;101735.91;5117766;27;45815;-65
2022/06/11 08:11:55;;;;;;;;;3.75;3.00;;;;;22.22;52.67;101735.63;5117909;27;69502;-66
2022/06/11 08:14:21;;;;;;;;;9.50;7.00;;;;;22.23;52.14;101735.53;5108522;27;46310;-65
2022/06/11 08:16:46;;;;;;;;;4.50;4.50;;;;;22.26;52.02;101727.34;5110073;27;45351;-66
2022/06/11 08:19:11;;;;;;;;;5.50;4.75;;;;;22.34;51.82;101732.25;5108031;27;45350;-68
2022/06/11 08:21:37;;;;;;;;;7.25;5.00;;;;;22.33;52.00;101727.88;5114651;27;64316;-68
2022/06/11 08:24:02;;;;;;;;;7.75;5.50;;;;;22.32;52.14;101729.66;5110161;27;46175;-68
2022/06/11 08:26:28;;;;;;;;;10.75;7.00;;;;;22.32;51.91;101739.50;5110865;27;45238;-69
2022/06/11 08:28:53;;;;;;;;;4.50;4.00;;;;;22.31;52.19;101730.63;5108384;27;45445;-67
2022/06/11 08:31:19;;;;;;;;;9.25;5.25;;;;;22.31;51.37;101737.75;5110161;27;71676;-66
2022/06/11 08:33:44;;;;;;;;;8.50;5.50;;;;;22.31;51.88;101740.44;5106549;27;46154;-67
2022/06/11 08:36:09;;;;;;;;;5.50;4.25;;;;;22.30;51.36;101733.41;5102420;27;45327;-67
2022/06/11 08:38:35;;;;;;;;;8.25;5.75;;;;;22.34;51.55;101741.09;5106008;27;49720;-67
2022/06/11 08:41:01;;;;;;;;;7.25;4.00;;;;;22.37;51.69;101737.41;5114240;27;45584;-67
2022/06/11 08:43:40;;;;;;;;;7.00;4.00;;;;;22.40;51.72;101731.00;5106976;27;46237;-67
2022/06/11 08:46:17;;;;;;;;;6.50;6.00;;;;;22.49;51.25;101735.81;5096663;27;45641;-67
2022/06/11 08:48:52;;;;;;;;;4.25;4.25;;;;;22.51;51.36;101728.56;5114081;27;45255;-67
2022/06/11 08:51:25;;;;;;;;;5.75;4.00;;;;;22.55;50.83;101730.09;5104569;27;45538;-67
2022/06/11 08:53:51;;;;;;;;;4.50;3.00;;;;;22.62;50.50;101727.91;5095124;27;46208;-68
2022/06/11 08:56:28;;;;;;;;;4.50;4.50;;;;;22.68;51.00;101723.03;5103032;27;45486;-68
2022/06/11 08:59:06;;;;;;;;;5.25;4.00;;;;;22.74;50.39;101719.97;5103937;27;45287;-67
2022/06/11 09:01:49;;;;;;;;;5.00;3.50;;;;;22.74;50.96;101725.31;5107455;27;45478;-67
2022/06/11 09:04:17;;;;;;;;;6.00;4.25;;;;;22.69;50.57;101716.72;5101779;27;46433;-67
2022/06/11 09:06:57;;;;;;;;;6.75;4.00;;;;;22.64;50.08;101724.16;5121895;27;45396;-67
2022/06/11 09:09:48;;;;;;;;;8.00;5.00;;;;;22.66;50.13;101719.59;5108675;27;45433;-66
2022/06/11 09:12:50;;;;;;;;;4.00;4.00;;;;;22.71;50.17;101716.66;5100695;27;45432;-66
2022/06/11 09:15:22;;;;;;;;;4.75;4.50;;;;;22.77;49.85;101720.72;5111340;27;45361;-66
2022/06/11 09:18:31;;;;;;;;;6.75;4.25;;;;;22.79;50.19;101711.69;5122439;27;45682;-67
2022/06/11 09:21:27;;;;;;;;;3.75;3.25;;;;;22.89;50.25;101706.63;5070090;27;45580;-67
2022/06/11 09:24:08;;;;;;;;;6.25;5.25;;;;;23.06;49.53;101710.91;5090529;27;45318;-65
2022/06/11 09:26:46;;;;;;;;;6.00;4.25;;;;;23.19;49.73;101709.16;5115900;27;45316;-68
2022/06/11 09:29:18;;;;;;;;;5.75;4.00;;;;;23.29;49.33;101717.44;5113773;27;45546;-68
2022/06/11 09:32:12;;;;;;;;;4.00;4.00;;;;;23.41;49.22;101713.97;5114122;27;45275;-68
2022/06/11 09:35:08;;;;;;;;;4.00;4.00;;;;;23.56;49.07;101713.91;5105005;27;45472;-66
2022/06/11 09:37:59;;;;;;;;;5.25;4.00;;;;;23.77;48.64;101704.44;5115961;27;46815;-68
2022/06/11 09:40:30;;;;;;;;;4.50;4.50;;;;;24.31;48.21;101703.50;5120751;27;45221;-66
2022/06/11 09:43:23;;;;;;;;;5.50;4.00;;;;;25.10;47.56;101706.78;5111438;27;45291;-62
2022/06/11 09:45:56;;;;;;;;;5.00;5.00;;;;;25.64;46.12;101715.38;5120542;27;45402;-61
2022/06/11 09:48:40;;;;;;;;;5.50;3.25;;;;;25.99;45.56;101710.03;5101169;27;46207;-63
2022/06/11 09:51:15;;;;;;;;;6.00;6.00;;;;;26.43;44.71;101711.09;5118352;27;45257;-58
2022/06/11 09:53:43;;;;;;;;;5.00;5.00;;;;;26.99;43.78;101701.34;5098309;27;45535;-56
2022/06/11 09:56:17;;;;;;;;;6.00;5.50;;;;;27.96;42.87;101704.94;5098780;27;45235;-57
2022/06/11 09:58:55;;;;;;;;;4.25;4.00;;;;;29.43;41.79;101703.66;5116824;27;46185;-60
2022/06/11 10:01:28;;;;;;;;;7.00;2.50;;;;;30.26;39.04;101704.00;5096859;27;45726;-58
2022/06/11 10:04:00;;;;;;;;;3.50;2.50;;;;;31.36;37.66;101702.31;5095293;27;45680;-58
2022/06/11 10:06:29;;;;;;;;;6.50;3.75;;;;;31.36;36.48;101704.16;5095977;27;45384;-58
2022/06/11 10:08:58;;;;;;;;;3.00;3.00;;;;;30.88;37.15;101702.59;5095413;27;45433;-59
2022/06/11 10:11:37;;;;;;;;;3.25;2.75;;;;;30.54;37.91;101703.22;5109101;27;45260;-59
2022/06/11 10:14:29;;;;;;;;;2.50;2.00;;;;;30.33;37.25;101701.53;5104586;27;45280;-60
2022/06/11 10:17:04;;;;;;;;;2.00;1.00;;;;;29.88;37.15;101699.53;5111417;27;45460;-59
2022/06/11 10:20:05;;;;;;;;;21.25;13.25;;;;;29.07;38.72;101699.75;5096783;27;46052;-59
2022/06/11 10:22:36;;;;;;;;;4.00;2.00;;;;;28.54;38.76;101700.88;5035323;28;45438;-60
2022/06/11 10:25:38;;;;;;;;;6.00;2.25;;;;;28.54;39.02;101707.13;5087749;27;45500;-60
2022/06/11 10:28:17;;;;;;;;;4.00;2.75;;;;;29.95;38.82;101697.97;5093535;27;45493;-60
2022/06/11 10:31:12;;;;;;;;;4.25;2.75;;;;;31.69;37.52;101702.63;5102365;27;46139;-61
2022/06/11 10:34:08;;;;;;;;;5.25;3.00;;;;;32.78;34.34;101698.59;5074857;27;45544;-61
2022/06/11 10:36:39;;;;;;;;;2.50;2.50;;;;;33.08;32.38;101694.41;5114336;27;45297;-60
2022/06/11 10:39:26;;;;;;;;;3.25;3.25;;;;;33.18;33.21;101688.84;5118496;27;45836;-59
2022/06/11 10:42:02;;;;;;;;;0.75;0.75;;;;;33.16;32.42;101688.19;5110868;27;46206;-61
2022/06/11 10:44:35;;;;;;;;;2.75;1.25;;;;;33.29;32.66;101691.28;5098433;27;45326;-61
2022/06/11 10:47:02;;;;;;;;;2.50;2.50;;;;;33.71;32.40;101691.31;5104721;27;45443;-61
2022/06/11 10:49:28;;;;;;;;;3.50;3.50;;;;;33.54;32.65;101691.28;5096490;27;45322;-60
2022/06/11 10:52:10;;;;;;;;;4.00;4.00;;;;;33.15;31.40;101693.78;5118560;27;72797;-60
2022/06/11 10:54:35;;;;;;;;;7.75;7.00;;;;;33.71;31.66;101686.72;5100814;27;45690;-61
2022/06/11 10:57:05;;;;;;;;;7.25;5.25;;;;;34.78;30.76;101700.06;5117392;27;62882;-62
2022/06/11 10:59:36;;;;;;;;;3.25;3.25;;;;;35.97;29.19;101695.09;5104124;27;45518;-62
2022/06/11 11:02:25;;;;;;;;;3.25;3.25;;;;;37.20;29.10;101701.78;5119191;27;45489;-62
2022/06/11 11:05:04;;;;;;;;;4.00;2.75;;;;;38.04;27.78;101694.72;5093586;27;45347;-63
2022/06/11 11:07:54;;;;;;;;;2.00;2.00;;;;;38.75;25.99;101688.16;5117669;27;45369;-62
2022/06/11 11:10:41;;;;;;;;;5.50;2.75;;;;;39.42;26.39;101680.09;5119603;27;45330;-62
2022/06/11 11:13:13;;;;;;;;;2.25;2.25;;;;;40.00;24.57;101685.78;5096185;27;45433;-62
2022/06/11 11:15:42;;;;;;;;;3.75;2.75;;;;;39.96;24.20;101686.41;5115531;27;46027;-63
2022/06/11 11:18:27;;;;;;;;;4.00;3.50;;;;;38.83;24.46;101681.66;5090270;27;45344;-62
2022/06/11 11:20:55;;;;;;;;;11.00;9.00;;;;;37.66;24.52;101686.88;5103906;27;45281;-62
2022/06/11 11:23:25;;;;;;;;;2.00;2.00;;;;;36.51;25.33;101684.97;5095111;27;46923;-61
2022/06/11 11:25:59;;;;;;;;;5.75;5.25;;;;;35.50;27.48;101685.28;5095704;27;45359;-61
2022/06/11 11:28:36;;;;;;;;;9.75;5.00;;;;;35.28;26.32;101682.41;5104032;27;45545;-62
2022/06/11 11:31:04;;;;;;;;;8.25;7.25;;;;;35.72;25.96;101681.72;5121852;27;45347;-62
2022/06/11 11:33:33;;;;;;;;;4.75;4.00;;;;;36.19;26.56;101681.56;5098633;27;47379;-62
2022/06/11 11:36:12;;;;;;;;;4.25;3.75;;;;;36.99;27.18;101679.88;5111498;27;45637;-62
2022/06/11 11:38:38;;;;;;;;;3.75;3.00;;;;;37.35;25.59;101679.03;5120631;27;45346;-62
2022/06/11 11:41:04;;;;;;;;;5.00;4.00;;;;;38.11;25.42;101681.13;5111548;27;46053;-61
2022/06/11 11:43:36;;;;;;;;;3.00;3.00;;;;;38.54;24.82;101680.91;5103140;27;46163;-62